QAK033 MMUN-MUHA
Flight info
| Callsign | QAK033 |
|---|---|
| Flight time | 0h 42m |
| Altitude | 35000 |
| Route | NUDAL1A NUDAL UR506 KALNO FARAC6A |
| Aircraft | A320/M-SDE3FGHIRWY/LB1 |
Departure
| Time | 2026-05-05 17:03 |
|---|---|
| Airport | Cancún International Airport (MMUN) |
Arrival
| Time | 2026-05-05 17:46 |
|---|---|
| Airport | José Martí International Airport (MUHA) |
| Time | Latitude | Longitude | Altitude | Speed | Heading |
|---|---|---|---|---|---|
| 2026-05-05 17:03 | 21.00775 | -86.83082 | 2459 ft | 196 kts | 119° |
| 2026-05-05 17:03 | 21.00115 | -86.81713 | 2802 ft | 216 kts | 118° |
| 2026-05-05 17:03 | 20.99397 | -86.80209 | 3238 ft | 233 kts | 118° |
| 2026-05-05 17:04 | 20.98639 | -86.78623 | 3778 ft | 249 kts | 118° |
| 2026-05-05 17:04 | 20.97886 | -86.76884 | 4386 ft | 262 kts | 107° |
| 2026-05-05 17:04 | 20.97760 | -86.74911 | 5141 ft | 272 kts | 81° |
| 2026-05-05 17:04 | 20.98216 | -86.72952 | 5988 ft | 275 kts | 76° |
| 2026-05-05 17:05 | 20.98728 | -86.70962 | 6808 ft | 279 kts | 75° |
| 2026-05-05 17:05 | 20.99255 | -86.68944 | 7567 ft | 283 kts | 75° |
| 2026-05-05 17:05 | 20.99793 | -86.66890 | 8321 ft | 289 kts | 75° |
| 2026-05-05 17:05 | 21.00336 | -86.64797 | 9075 ft | 294 kts | 74° |
| 2026-05-05 17:06 | 21.00883 | -86.62684 | 9801 ft | 299 kts | 74° |
| 2026-05-05 17:06 | 21.01448 | -86.60492 | 10268 ft | 314 kts | 74° |
| 2026-05-05 17:06 | 21.02043 | -86.58172 | 10477 ft | 337 kts | 74° |
| 2026-05-05 17:06 | 21.02689 | -86.55656 | 10736 ft | 356 kts | 74° |
| 2026-05-05 17:07 | 21.03345 | -86.53087 | 11299 ft | 363 kts | 74° |
| 2026-05-05 17:07 | 21.04015 | -86.50463 | 11954 ft | 367 kts | 74° |
| 2026-05-05 17:07 | 21.04690 | -86.47812 | 12594 ft | 371 kts | 74° |
| 2026-05-05 17:07 | 21.05375 | -86.45129 | 13243 ft | 374 kts | 74° |
| 2026-05-05 17:08 | 21.06068 | -86.42418 | 13880 ft | 378 kts | 74° |
| 2026-05-05 17:08 | 21.06759 | -86.39716 | 14437 ft | 381 kts | 73° |
| 2026-05-05 17:08 | 21.07460 | -86.36963 | 15032 ft | 382 kts | 73° |
| 2026-05-05 17:08 | 21.08153 | -86.34238 | 15616 ft | 384 kts | 73° |
| 2026-05-05 17:09 | 21.08854 | -86.31468 | 16201 ft | 386 kts | 73° |
| 2026-05-05 17:09 | 21.09560 | -86.28675 | 16770 ft | 388 kts | 72° |
| 2026-05-05 17:09 | 21.10269 | -86.25877 | 17351 ft | 390 kts | 72° |
| 2026-05-05 17:09 | 21.10978 | -86.23094 | 17908 ft | 392 kts | 72° |
| 2026-05-05 17:10 | 21.11700 | -86.20260 | 18447 ft | 394 kts | 72° |
| 2026-05-05 17:10 | 21.12423 | -86.17414 | 18902 ft | 397 kts | 72° |
| 2026-05-05 17:10 | 21.13155 | -86.14536 | 19344 ft | 401 kts | 72° |
| 2026-05-05 17:10 | 21.13889 | -86.11641 | 19770 ft | 405 kts | 72° |
| 2026-05-05 17:11 | 21.14620 | -86.08749 | 20205 ft | 409 kts | 72° |
| 2026-05-05 17:11 | 21.15370 | -86.05777 | 20644 ft | 412 kts | 72° |
| 2026-05-05 17:11 | 21.16124 | -86.02785 | 21072 ft | 416 kts | 72° |
| 2026-05-05 17:11 | 21.16874 | -85.99811 | 21491 ft | 420 kts | 72° |
| 2026-05-05 17:12 | 21.17643 | -85.96766 | 21905 ft | 424 kts | 72° |
| 2026-05-05 17:12 | 21.18417 | -85.93693 | 22314 ft | 428 kts | 73° |
| 2026-05-05 17:12 | 21.19193 | -85.90595 | 22713 ft | 431 kts | 73° |
| 2026-05-05 17:12 | 21.19971 | -85.87474 | 23098 ft | 435 kts | 73° |
| 2026-05-05 17:13 | 21.20748 | -85.84354 | 23481 ft | 439 kts | 73° |
| 2026-05-05 17:13 | 21.21542 | -85.81176 | 23816 ft | 442 kts | 73° |
| 2026-05-05 17:13 | 21.22335 | -85.78015 | 24142 ft | 444 kts | 73° |
| 2026-05-05 17:13 | 21.23141 | -85.74812 | 24481 ft | 446 kts | 72° |
| 2026-05-05 17:14 | 21.23953 | -85.71587 | 24818 ft | 448 kts | 72° |
| 2026-05-05 17:14 | 21.24768 | -85.68341 | 25149 ft | 450 kts | 72° |
| 2026-05-05 17:14 | 21.25577 | -85.65125 | 25472 ft | 451 kts | 71° |
| 2026-05-05 17:14 | 21.26656 | -85.61955 | 25786 ft | 450 kts | 62° |
| 2026-05-05 17:15 | 21.28182 | -85.59029 | 26102 ft | 448 kts | 53° |
| 2026-05-05 17:15 | 21.29894 | -85.56267 | 26418 ft | 450 kts | 53° |
| 2026-05-05 17:15 | 21.31634 | -85.53458 | 26741 ft | 451 kts | 53° |
| 2026-05-05 17:15 | 21.33372 | -85.50643 | 27049 ft | 453 kts | 53° |
| 2026-05-05 17:16 | 21.35115 | -85.47808 | 27358 ft | 455 kts | 53° |
| 2026-05-05 17:16 | 21.36839 | -85.44992 | 27659 ft | 456 kts | 53° |
| 2026-05-05 17:16 | 21.38583 | -85.42134 | 27954 ft | 458 kts | 53° |
| 2026-05-05 17:16 | 21.40314 | -85.39293 | 28238 ft | 460 kts | 53° |
| 2026-05-05 17:17 | 21.42079 | -85.36410 | 28523 ft | 461 kts | 53° |
| 2026-05-05 17:17 | 21.43853 | -85.33523 | 28795 ft | 463 kts | 53° |
| 2026-05-05 17:17 | 21.45630 | -85.30630 | 29059 ft | 464 kts | 53° |
| 2026-05-05 17:17 | 21.47389 | -85.27762 | 29307 ft | 466 kts | 53° |
| 2026-05-05 17:18 | 21.49174 | -85.24843 | 29558 ft | 467 kts | 53° |
| 2026-05-05 17:18 | 21.50965 | -85.21911 | 29795 ft | 469 kts | 53° |
| 2026-05-05 17:18 | 21.52764 | -85.18963 | 30030 ft | 470 kts | 53° |
| 2026-05-05 17:18 | 21.54535 | -85.16052 | 30225 ft | 472 kts | 53° |
| 2026-05-05 17:19 | 21.56339 | -85.13085 | 30490 ft | 471 kts | 53° |
| 2026-05-05 17:19 | 21.58137 | -85.10136 | 30770 ft | 470 kts | 53° |
| 2026-05-05 17:19 | 21.59925 | -85.07202 | 31041 ft | 469 kts | 53° |
| 2026-05-05 17:19 | 21.61691 | -85.04305 | 31328 ft | 468 kts | 53° |
| 2026-05-05 17:20 | 21.63473 | -85.01378 | 31615 ft | 467 kts | 53° |
| 2026-05-05 17:20 | 21.65253 | -84.98460 | 31905 ft | 465 kts | 53° |
| 2026-05-05 17:20 | 21.67030 | -84.95542 | 32207 ft | 464 kts | 53° |
| 2026-05-05 17:20 | 21.68778 | -84.92667 | 32501 ft | 463 kts | 52° |
| 2026-05-05 17:21 | 21.70538 | -84.89769 | 32803 ft | 462 kts | 52° |
| 2026-05-05 17:21 | 21.72297 | -84.86869 | 33198 ft | 462 kts | 52° |
| 2026-05-05 17:21 | 21.74070 | -84.83948 | 33357 ft | 467 kts | 53° |
| 2026-05-05 17:22 | 21.77653 | -84.78062 | 33617 ft | 477 kts | 53° |
| 2026-05-05 17:22 | 21.79481 | -84.75048 | 33752 ft | 482 kts | 53° |
| 2026-05-05 17:22 | 21.81314 | -84.71998 | 33886 ft | 486 kts | 53° |
| 2026-05-05 17:22 | 21.83109 | -84.68964 | 34078 ft | 488 kts | 53° |
| 2026-05-05 17:23 | 21.84924 | -84.65869 | 34293 ft | 489 kts | 53° |
| 2026-05-05 17:23 | 21.86740 | -84.62779 | 34532 ft | 488 kts | 53° |
| 2026-05-05 17:23 | 21.88588 | -84.59705 | 34772 ft | 488 kts | 52° |
| 2026-05-05 17:23 | 21.90468 | -84.56639 | 34971 ft | 488 kts | 52° |
| 2026-05-05 17:24 | 21.92360 | -84.53588 | 35033 ft | 489 kts | 52° |
| 2026-05-05 17:24 | 21.96129 | -84.47538 | 35042 ft | 488 kts | 52° |
| 2026-05-05 17:25 | 21.99885 | -84.41467 | 35040 ft | 488 kts | 52° |
| 2026-05-05 17:25 | 22.03617 | -84.35365 | 35039 ft | 487 kts | 52° |
| 2026-05-05 17:26 | 22.07364 | -84.29245 | 35041 ft | 487 kts | 52° |
| 2026-05-05 17:26 | 22.11092 | -84.23155 | 35044 ft | 487 kts | 52° |
| 2026-05-05 17:27 | 22.14811 | -84.17072 | 35043 ft | 487 kts | 52° |
| 2026-05-05 17:27 | 22.18530 | -84.10975 | 35044 ft | 487 kts | 52° |
| 2026-05-05 17:28 | 22.22245 | -84.04883 | 35042 ft | 487 kts | 52° |
| 2026-05-05 17:28 | 22.25967 | -83.98767 | 35053 ft | 487 kts | 52° |
| 2026-05-05 17:29 | 22.29670 | -83.92671 | 35046 ft | 486 kts | 52° |
| 2026-05-05 17:29 | 22.31536 | -83.89603 | 34458 ft | 488 kts | 52° |
| 2026-05-05 17:29 | 22.33428 | -83.86503 | 33249 ft | 496 kts | 52° |
| 2026-05-05 17:29 | 22.35335 | -83.83374 | 31941 ft | 495 kts | 53° |
| 2026-05-05 17:30 | 22.37207 | -83.80287 | 30257 ft | 498 kts | 53° |
| 2026-05-05 17:30 | 22.39106 | -83.77148 | 28588 ft | 497 kts | 53° |
| 2026-05-05 17:30 | 22.40992 | -83.74021 | 27144 ft | 491 kts | 53° |
| 2026-05-05 17:30 | 22.42845 | -83.70945 | 25870 ft | 483 kts | 53° |
| 2026-05-05 17:31 | 22.44648 | -83.67954 | 24684 ft | 475 kts | 53° |
| 2026-05-05 17:31 | 22.46445 | -83.64979 | 23553 ft | 468 kts | 53° |
| 2026-05-05 17:31 | 22.48218 | -83.62049 | 22302 ft | 461 kts | 53° |
| 2026-05-05 17:31 | 22.49954 | -83.59185 | 21520 ft | 446 kts | 53° |
| 2026-05-05 17:32 | 22.51619 | -83.56433 | 21026 ft | 425 kts | 53° |
| 2026-05-05 17:32 | 22.53188 | -83.53838 | 20516 ft | 409 kts | 53° |
| 2026-05-05 17:32 | 22.54738 | -83.51274 | 20141 ft | 409 kts | 53° |
| 2026-05-05 17:32 | 22.56320 | -83.48661 | 20004 ft | 416 kts | 53° |
| 2026-05-05 17:33 | 22.57889 | -83.46067 | 19386 ft | 416 kts | 53° |
| 2026-05-05 17:33 | 22.59495 | -83.43414 | 18212 ft | 427 kts | 54° |
| 2026-05-05 17:33 | 22.61116 | -83.40730 | 17843 ft | 419 kts | 54° |
| 2026-05-05 17:33 | 22.62697 | -83.38103 | 17338 ft | 414 kts | 54° |
| 2026-05-05 17:34 | 22.64249 | -83.35522 | 16796 ft | 411 kts | 54° |
| 2026-05-05 17:34 | 22.65810 | -83.32924 | 16241 ft | 410 kts | 54° |
| 2026-05-05 17:34 | 22.67362 | -83.30339 | 15689 ft | 408 kts | 55° |
| 2026-05-05 17:34 | 22.68907 | -83.27752 | 15134 ft | 407 kts | 56° |
| 2026-05-05 17:35 | 22.70140 | -83.25036 | 14579 ft | 407 kts | 69° |
| 2026-05-05 17:35 | 22.70888 | -83.22070 | 14016 ft | 406 kts | 77° |
| 2026-05-05 17:35 | 22.71510 | -83.19069 | 13389 ft | 405 kts | 77° |
| 2026-05-05 17:35 | 22.72122 | -83.16138 | 12879 ft | 400 kts | 77° |
| 2026-05-05 17:36 | 22.72741 | -83.13195 | 12253 ft | 398 kts | 77° |
| 2026-05-05 17:36 | 22.73345 | -83.10318 | 11727 ft | 393 kts | 76° |
| 2026-05-05 17:36 | 22.73947 | -83.07437 | 11204 ft | 389 kts | 77° |
| 2026-05-05 17:36 | 22.74570 | -83.04579 | 10750 ft | 383 kts | 75° |
| 2026-05-05 17:37 | 22.75261 | -83.01872 | 10619 ft | 367 kts | 73° |
| 2026-05-05 17:37 | 22.75754 | -83.00106 | 10539 ft | 357 kts | 72° |
| 2026-05-05 17:37 | 22.76728 | -82.96783 | 10384 ft | 340 kts | 71° |
| 2026-05-05 17:37 | 22.77437 | -82.94380 | 10268 ft | 329 kts | 72° |
| 2026-05-05 17:38 | 22.78114 | -82.92055 | 10144 ft | 318 kts | 72° |
| 2026-05-05 17:38 | 22.78758 | -82.89812 | 9908 ft | 312 kts | 72° |
| 2026-05-05 17:38 | 22.79392 | -82.87572 | 9551 ft | 310 kts | 72° |
| 2026-05-05 17:38 | 22.80018 | -82.85344 | 9189 ft | 307 kts | 72° |
| 2026-05-05 17:39 | 22.80637 | -82.83132 | 8816 ft | 306 kts | 72° |
| 2026-05-05 17:39 | 22.81253 | -82.80925 | 8425 ft | 304 kts | 72° |
| 2026-05-05 17:39 | 22.81854 | -82.78763 | 8061 ft | 302 kts | 73° |
| 2026-05-05 17:39 | 22.82457 | -82.76582 | 7681 ft | 300 kts | 72° |
| 2026-05-05 17:40 | 22.83059 | -82.74414 | 7313 ft | 298 kts | 72° |
| 2026-05-05 17:40 | 22.83648 | -82.72294 | 6940 ft | 296 kts | 73° |
| 2026-05-05 17:40 | 22.84242 | -82.70159 | 6546 ft | 295 kts | 72° |
| 2026-05-05 17:40 | 22.84848 | -82.67990 | 5770 ft | 306 kts | 72° |
| 2026-05-05 17:41 | 22.85474 | -82.65739 | 4970 ft | 314 kts | 73° |
| 2026-05-05 17:41 | 22.86098 | -82.63485 | 4181 ft | 310 kts | 72° |
| 2026-05-05 17:41 | 22.86702 | -82.61308 | 3859 ft | 290 kts | 73° |
| 2026-05-05 17:41 | 22.87252 | -82.59327 | 3722 ft | 266 kts | 72° |
| 2026-05-05 17:42 | 22.87893 | -82.57537 | 3605 ft | 243 kts | 58° |
| 2026-05-05 17:42 | 22.88840 | -82.56032 | 3243 ft | 242 kts | 52° |
| 2026-05-05 17:42 | 22.89831 | -82.54569 | 2857 ft | 236 kts | 52° |
| 2026-05-05 17:42 | 22.90773 | -82.53164 | 2546 ft | 229 kts | 53° |
| 2026-05-05 17:43 | 22.91691 | -82.51784 | 2263 ft | 221 kts | 53° |
| 2026-05-05 17:43 | 22.92576 | -82.50453 | 1976 ft | 213 kts | 53° |
| 2026-05-05 17:43 | 22.93145 | -82.49597 | 1817 ft | 209 kts | 53° |
| 2026-05-05 17:43 | 22.93973 | -82.48352 | 1550 ft | 197 kts | 53° |
| 2026-05-05 17:44 | 22.94748 | -82.47184 | 1288 ft | 183 kts | 52° |
| 2026-05-05 17:44 | 22.95455 | -82.46119 | 1070 ft | 165 kts | 52° |
| 2026-05-05 17:44 | 22.96098 | -82.45151 | 853 ft | 151 kts | 51° |
| 2026-05-05 17:44 | 22.96692 | -82.44248 | 639 ft | 142 kts | 50° |
| 2026-05-05 17:45 | 22.97251 | -82.43406 | 442 ft | 138 kts | 52° |
| 2026-05-05 17:45 | 22.97813 | -82.42563 | 268 ft | 137 kts | 50° |
| 2026-05-05 17:45 | 22.98339 | -82.41772 | 222 ft | 113 kts | 53° |
| 2026-05-05 17:45 | 22.98744 | -82.41164 | 217 ft | 88 kts | 53° |
| 2026-05-05 17:46 | 22.99050 | -82.40702 | 217 ft | 52 kts | 54° |
| 2026-05-05 17:46 | 22.99196 | -82.40491 | 220 ft | 23 kts | 53° |
| 2026-05-05 17:46 | 22.99271 | -82.40419 | 215 ft | 10 kts | 10° |
| 2026-05-05 17:46 | 22.99351 | -82.40406 | 216 ft | 9 kts | 8° |
| 2026-05-05 17:47 | 22.99439 | -82.40393 | 216 ft | 12 kts | 8° |
| 2026-05-05 17:47 | 22.99528 | -82.40435 | 217 ft | 13 kts | 323° |
| 2026-05-05 17:47 | 22.99585 | -82.40486 | 217 ft | 7 kts | 311° |
| 2026-05-05 17:47 | 22.99600 | -82.40538 | 220 ft | 10 kts | 242° |
| 2026-05-05 17:48 | 22.99528 | -82.40613 | 216 ft | 17 kts | 223° |
| 2026-05-05 17:48 | 22.99485 | -82.40685 | 221 ft | 8 kts | 265° |
| 2026-05-05 17:48 | 22.99541 | -82.40735 | 216 ft | 9 kts | 331° |
| 2026-05-05 17:48 | 22.99579 | -82.40724 | 216 ft | 8 kts | 31° |
| 2026-05-05 17:49 | 22.99609 | -82.40703 | 220 ft | 0 kts | 30° |
| 2026-05-05 17:49 | 22.99613 | -82.40701 | 220 ft | 0 kts | 30° |
| 2026-05-05 17:49 | 22.99616 | -82.40699 | 219 ft | 0 kts | 30° |